createdAt,value
2022-09-17T00:01:17.335Z,0.65
2022-09-17T00:04:59.148Z,0.63
2022-09-17T00:08:42.487Z,0.50
2022-09-17T00:12:24.281Z,0.65
2022-09-17T00:16:06.701Z,0.60
2022-09-17T00:19:49.913Z,0.70
2022-09-17T00:23:31.708Z,1.05
2022-09-17T00:27:13.776Z,1.10
2022-09-17T00:30:55.874Z,1.45
2022-09-17T00:34:37.803Z,1.13
2022-09-17T00:38:19.623Z,1.40
2022-09-17T00:42:05.649Z,1.33
2022-09-17T00:45:47.499Z,0.88
2022-09-17T00:49:30.887Z,0.80
2022-09-17T00:53:19.389Z,0.90
2022-09-17T00:57:01.195Z,0.65
2022-09-17T01:00:43.391Z,1.33
2022-09-17T01:04:27.256Z,1.00
2022-09-17T01:08:43.859Z,1.15
2022-09-17T01:12:41.020Z,0.75
2022-09-17T01:20:55.281Z,0.60
2022-09-17T01:24:54.745Z,0.40
2022-09-17T01:28:58.089Z,1.35
2022-09-17T01:32:54.398Z,0.77
2022-09-17T01:36:45.514Z,1.10
2022-09-17T01:40:38.540Z,1.02
2022-09-17T01:44:24.537Z,1.08
2022-09-17T01:48:23.096Z,0.90
2022-09-17T01:52:07.415Z,1.20
2022-09-17T01:55:52.176Z,1.23
2022-09-17T01:59:51.149Z,1.23
2022-09-17T02:03:40.041Z,1.55
2022-09-17T02:07:26.264Z,1.40
2022-09-17T02:11:11.056Z,1.35
2022-09-17T02:14:57.412Z,1.20
2022-09-17T02:19:04.941Z,1.55
2022-09-17T02:22:56.848Z,1.52
2022-09-17T02:26:45.287Z,1.13
2022-09-17T02:30:27.570Z,1.42
2022-09-17T02:34:10.416Z,1.10
2022-09-17T02:37:53.373Z,1.00
2022-09-17T02:41:54.157Z,1.42
2022-09-17T02:45:54.759Z,0.93
2022-09-17T02:49:46.163Z,1.35
2022-09-17T02:53:28.982Z,1.20
2022-09-17T02:57:16.828Z,1.00
2022-09-17T03:01:04.942Z,0.80
2022-09-17T03:04:49.290Z,0.88
2022-09-17T03:08:40.442Z,1.23
2022-09-17T03:12:24.875Z,1.10
2022-09-17T03:16:08.025Z,1.10
2022-09-17T03:19:49.898Z,0.93
2022-09-17T03:23:32.959Z,1.15
2022-09-17T03:27:15.010Z,0.98
2022-09-17T03:30:56.949Z,1.30
2022-09-17T03:34:38.799Z,1.23
2022-09-17T03:38:20.768Z,0.93
2022-09-17T03:42:02.573Z,1.13
2022-09-17T03:45:44.376Z,1.10
2022-09-17T03:49:26.259Z,1.45
2022-09-17T03:53:08.085Z,1.15
2022-09-17T03:56:49.989Z,1.65
2022-09-17T04:00:32.697Z,1.02
2022-09-17T04:04:14.484Z,1.50
2022-09-17T04:07:56.291Z,1.30
2022-09-17T04:11:38.483Z,1.30
2022-09-17T04:15:20.313Z,1.30
2022-09-17T04:19:02.488Z,1.10
2022-09-17T04:22:44.498Z,1.30
2022-09-17T04:26:26.318Z,0.80
2022-09-17T04:30:11.060Z,1.08
2022-09-17T04:33:53.805Z,1.10
2022-09-17T04:37:36.620Z,0.90
2022-09-17T04:41:18.611Z,1.00
2022-09-17T04:45:00.604Z,1.10
2022-09-17T04:48:42.737Z,1.00
2022-09-17T04:52:28.873Z,1.10
2022-09-17T04:56:12.655Z,0.95
2022-09-17T04:59:54.705Z,1.40
2022-09-17T05:03:39.230Z,1.27
2022-09-17T05:07:21.040Z,1.02
2022-09-17T05:11:03.763Z,1.00
2022-09-17T05:14:45.666Z,1.40
2022-09-17T05:18:27.520Z,1.38
2022-09-17T05:22:09.323Z,1.15
2022-09-17T05:25:52.890Z,1.20
2022-09-17T05:29:34.696Z,1.25
2022-09-17T05:33:16.603Z,1.33
2022-09-17T05:36:58.457Z,1.17
2022-09-17T05:40:40.368Z,0.90
2022-09-17T05:44:23.697Z,1.40
2022-09-17T05:48:13.467Z,1.92
2022-09-17T05:51:55.569Z,1.38
2022-09-17T05:55:37.618Z,1.00
2022-09-17T05:59:19.416Z,1.08
2022-09-17T06:03:01.461Z,0.95
2022-09-17T06:06:43.864Z,1.50
2022-09-17T06:10:25.918Z,1.08
2022-09-17T06:14:08.701Z,1.17
2022-09-17T06:17:50.658Z,1.13
2022-09-17T06:21:32.581Z,1.15
2022-09-17T06:25:15.208Z,1.17
2022-09-17T06:29:00.025Z,1.13
2022-09-17T06:32:41.849Z,1.25
2022-09-17T06:36:25.124Z,1.13
2022-09-17T06:40:08.128Z,1.50
2022-09-17T06:43:56.121Z,1.27
2022-09-17T06:47:37.927Z,1.30
2022-09-17T06:51:19.820Z,1.42
2022-09-17T06:55:01.652Z,1.20
2022-09-17T06:58:43.984Z,1.15
2022-09-17T07:02:26.001Z,1.30
2022-09-17T07:06:11.373Z,0.90
2022-09-17T07:09:55.925Z,0.90
2022-09-17T07:13:37.998Z,1.00
2022-09-17T07:17:20.436Z,1.35
2022-09-17T07:21:05.118Z,1.10
2022-09-17T07:24:47.003Z,0.80
2022-09-17T07:28:29.530Z,1.20
2022-09-17T07:32:11.414Z,1.50
2022-09-17T07:35:57.885Z,0.90
2022-09-17T07:39:39.633Z,1.50
2022-09-17T07:43:21.496Z,1.05
2022-09-17T07:47:04.086Z,1.20
2022-09-17T07:50:46.051Z,1.30
2022-09-17T07:54:27.940Z,1.10
2022-09-17T07:58:09.808Z,1.65
2022-09-17T08:01:51.679Z,1.10
2022-09-17T08:05:33.895Z,1.20
2022-09-17T08:09:17.050Z,1.30
2022-09-17T08:12:59.152Z,1.50
2022-09-17T08:16:41.665Z,1.13
2022-09-17T08:20:26.141Z,1.02
2022-09-17T08:24:08.013Z,0.80
2022-09-17T08:27:56.617Z,0.73
2022-09-17T08:31:38.578Z,1.02
2022-09-17T08:35:20.493Z,0.75
2022-09-17T08:39:02.487Z,0.65
2022-09-17T08:42:54.978Z,0.85
2022-09-17T08:47:18.608Z,0.77
2022-09-17T08:51:05.373Z,0.60
2022-09-17T08:54:59.131Z,0.70
2022-09-17T08:59:04.168Z,0.77
2022-09-17T09:03:01.390Z,0.40
2022-09-17T09:06:49.451Z,0.60
2022-09-17T09:10:51.647Z,1.08
2022-09-17T09:14:45.716Z,0.75
2022-09-17T09:18:31.163Z,0.80
2022-09-17T09:22:43.967Z,0.65
2022-09-17T09:27:00.735Z,1.15
2022-09-17T09:31:20.167Z,0.40
2022-09-17T09:35:16.935Z,0.80
2022-09-17T09:42:46.492Z,0.90
2022-09-17T09:47:02.370Z,0.60
2022-09-17T09:51:42.315Z,0.47
2022-09-17T09:55:42.483Z,0.40
2022-09-17T09:59:25.814Z,0.60
2022-09-17T10:03:19.620Z,0.90
2022-09-17T10:07:05.814Z,0.50
2022-09-17T10:11:20.038Z,0.60
2022-09-17T10:15:24.256Z,1.00
2022-09-17T10:19:06.743Z,0.65
2022-09-17T10:22:48.765Z,0.60
2022-09-17T10:26:33.725Z,0.50
2022-09-17T10:30:18.272Z,0.47
2022-09-17T10:34:04.580Z,0.68
2022-09-17T10:37:51.454Z,0.80
2022-09-17T10:41:33.226Z,0.47
2022-09-17T10:45:29.691Z,0.65
2022-09-17T10:49:25.464Z,0.60
2022-09-17T10:53:18.555Z,0.60
2022-09-17T10:57:01.615Z,0.63
2022-09-17T11:01:04.994Z,0.55
2022-09-17T11:05:02.869Z,0.70
2022-09-17T11:08:53.557Z,0.47
2022-09-17T11:12:42.085Z,0.47
2022-09-17T11:16:45.551Z,0.47
2022-09-17T11:20:33.261Z,0.30
2022-09-17T11:24:28.199Z,0.52
2022-09-17T11:28:32.175Z,0.43
2022-09-17T11:32:35.720Z,0.70
2022-09-17T11:36:29.089Z,0.70
2022-09-17T11:40:12.228Z,0.50
2022-09-17T11:44:06.878Z,0.50
2022-09-17T11:47:52.148Z,0.70
2022-09-17T11:51:38.664Z,0.73
2022-09-17T11:55:29.220Z,0.50
2022-09-17T11:59:35.708Z,1.20
2022-09-17T12:03:43.589Z,0.68
2022-09-17T12:08:02.230Z,0.50
2022-09-17T12:11:57.907Z,0.80
2022-09-17T12:15:42.583Z,0.50
2022-09-17T12:19:27.855Z,0.40
2022-09-17T12:23:18.072Z,0.63
2022-09-17T12:27:38.192Z,0.80
2022-09-17T12:32:04.049Z,0.68
2022-09-17T12:36:20.129Z,0.80
2022-09-17T12:40:17.761Z,0.55
2022-09-17T12:44:37.994Z,0.35
2022-09-17T12:48:44.144Z,0.38
2022-09-17T12:52:44.004Z,0.40
2022-09-17T12:56:40.888Z,0.75
2022-09-17T13:00:22.952Z,0.73
2022-09-17T13:04:57.199Z,0.70
2022-09-17T13:08:44.544Z,0.85
2022-09-17T13:12:41.847Z,0.50
2022-09-17T13:17:00.124Z,0.47
2022-09-17T13:20:53.746Z,0.50
2022-09-17T13:24:37.550Z,0.65
2022-09-17T13:28:19.403Z,0.70
2022-09-17T13:32:01.475Z,0.70
2022-09-17T13:35:43.523Z,0.65
2022-09-17T13:39:40.624Z,0.60
2022-09-17T13:43:26.277Z,0.50
2022-09-17T13:47:16.059Z,0.40
2022-09-17T13:50:57.952Z,0.73
2022-09-17T13:54:40.132Z,0.70
2022-09-17T13:58:27.053Z,0.60
2022-09-17T14:02:18.233Z,0.45
2022-09-17T14:06:06.299Z,0.43
2022-09-17T14:10:22.023Z,0.80
2022-09-17T14:14:04.277Z,0.32
2022-09-17T14:17:54.008Z,0.40
2022-09-17T14:21:36.117Z,0.40
2022-09-17T14:25:21.878Z,0.47
2022-09-17T14:29:34.201Z,0.43
2022-09-17T14:33:19.085Z,0.32
2022-09-17T14:37:01.668Z,0.50
2022-09-17T14:41:04.789Z,0.73
2022-09-17T14:45:27.527Z,0.57
2022-09-17T14:49:17.844Z,0.50
2022-09-17T14:53:14.472Z,0.75
2022-09-17T14:57:02.232Z,0.43
2022-09-17T15:00:52.094Z,0.40
2022-09-17T15:04:33.869Z,0.43
2022-09-17T15:08:28.990Z,0.45
2022-09-17T15:12:17.715Z,0.73
2022-09-17T15:16:07.805Z,0.43
2022-09-17T15:19:54.479Z,0.40
2022-09-17T15:23:37.400Z,0.43
2022-09-17T15:27:34.130Z,0.85
2022-09-17T15:31:20.238Z,0.47
2022-09-17T15:35:14.535Z,0.38
2022-09-17T15:38:56.345Z,0.65
2022-09-17T15:42:38.121Z,0.73
2022-09-17T15:46:29.008Z,1.02
2022-09-17T15:50:26.187Z,0.70
2022-09-17T15:54:29.305Z,0.60
2022-09-17T15:58:29.893Z,0.55
2022-09-17T16:02:29.856Z,0.57
2022-09-17T16:06:25.329Z,0.57
2022-09-17T16:10:09.135Z,0.60
2022-09-17T16:13:53.498Z,0.52
2022-09-17T16:17:47.388Z,0.50
2022-09-17T16:21:29.219Z,0.32
2022-09-17T16:25:11.728Z,0.73
2022-09-17T16:28:56.957Z,0.70
2022-09-17T16:32:38.753Z,0.40
2022-09-17T16:36:21.016Z,0.70
2022-09-17T16:40:03.273Z,0.47
2022-09-17T16:43:45.112Z,0.65
2022-09-17T16:47:26.992Z,0.60
2022-09-17T16:51:09.936Z,0.40
2022-09-17T16:54:51.662Z,0.52
2022-09-17T16:58:33.538Z,0.70
2022-09-17T17:02:15.292Z,0.70
2022-09-17T17:05:57.037Z,0.85
2022-09-17T17:09:38.831Z,0.50
2022-09-17T17:13:20.907Z,1.10
2022-09-17T17:17:03.251Z,0.65
2022-09-17T17:20:45.084Z,0.85
2022-09-17T17:24:26.923Z,0.40
2022-09-17T17:28:08.809Z,0.68
2022-09-17T17:31:51.101Z,0.70
2022-09-17T17:35:33.214Z,0.70
2022-09-17T17:39:15.119Z,0.50
2022-09-17T17:42:56.920Z,0.73
2022-09-17T17:46:41.651Z,0.35
2022-09-17T17:50:23.568Z,0.40
2022-09-17T17:54:05.499Z,0.50
2022-09-17T17:57:47.444Z,0.70
2022-09-17T18:01:31.518Z,0.55
2022-09-17T18:05:13.574Z,0.43
2022-09-17T18:08:55.555Z,0.82
2022-09-17T18:12:37.565Z,0.68
2022-09-17T18:16:19.881Z,0.40
2022-09-17T18:20:02.217Z,0.88
2022-09-17T18:23:45.000Z,0.85
2022-09-17T18:27:26.863Z,0.47
2022-09-17T18:31:20.501Z,0.43
2022-09-17T18:35:02.291Z,0.80
2022-09-17T18:38:44.112Z,0.80
2022-09-17T18:42:25.915Z,0.73
2022-09-17T18:46:07.840Z,0.90
2022-09-17T18:49:49.631Z,0.70
2022-09-17T18:53:33.949Z,0.93
2022-09-17T18:57:16.806Z,1.00
2022-09-17T19:00:58.665Z,1.40
2022-09-17T19:04:40.536Z,1.40
2022-09-17T19:08:23.069Z,1.20
2022-09-17T19:12:04.920Z,1.98
2022-09-17T19:15:47.073Z,1.23
2022-09-17T19:19:29.078Z,1.38
2022-09-17T19:23:10.884Z,1.48
2022-09-17T19:26:53.543Z,1.70
2022-09-17T19:30:35.760Z,1.63
2022-09-17T19:34:17.550Z,1.48
2022-09-17T19:37:59.482Z,1.48
2022-09-17T19:41:41.249Z,1.52
2022-09-17T19:45:23.640Z,2.15
2022-09-17T19:49:05.572Z,2.03
2022-09-17T19:52:47.368Z,2.08
2022-09-17T19:56:29.131Z,2.42
2022-09-17T20:00:12.237Z,2.45
2022-09-17T20:03:54.042Z,1.67
2022-09-17T20:07:35.872Z,2.08
2022-09-17T20:11:19.552Z,1.58
2022-09-17T20:15:01.328Z,1.92
2022-09-17T20:18:46.197Z,2.03
2022-09-17T20:22:28.023Z,1.42
2022-09-17T20:26:11.367Z,1.55
2022-09-17T20:29:56.100Z,1.40
2022-09-17T20:33:38.588Z,1.58
2022-09-17T20:37:44.422Z,1.60
2022-09-17T20:41:22.707Z,2.58
2022-09-17T20:45:05.158Z,2.20
2022-09-17T20:48:47.239Z,2.10
2022-09-17T20:52:29.090Z,2.00
2022-09-17T20:56:22.483Z,2.08
2022-09-17T21:00:17.580Z,2.03
2022-09-17T21:04:00.819Z,2.00
2022-09-17T21:07:42.680Z,2.20
2022-09-17T21:11:24.737Z,3.33
2022-09-17T21:15:06.929Z,3.20
2022-09-17T21:18:48.920Z,2.35
2022-09-17T21:22:30.729Z,2.78
2022-09-17T21:26:13.999Z,2.85
2022-09-17T21:29:55.872Z,2.40
2022-09-17T21:33:38.282Z,3.42
2022-09-17T21:37:20.160Z,2.22
2022-09-17T21:41:08.178Z,2.05
2022-09-17T21:44:49.944Z,2.13
2022-09-17T21:48:33.779Z,2.40
2022-09-17T21:52:15.576Z,1.88
2022-09-17T21:56:14.307Z,1.85
2022-09-17T21:59:56.100Z,2.00
2022-09-17T22:03:38.330Z,1.90
2022-09-17T22:07:23.065Z,1.73
2022-09-17T22:11:16.730Z,2.05
2022-09-17T22:14:58.576Z,2.20
2022-09-17T22:18:40.352Z,2.72
2022-09-17T22:22:22.241Z,2.53
2022-09-17T22:26:05.183Z,1.73
2022-09-17T22:29:47.304Z,1.88
2022-09-17T22:33:40.425Z,1.70
2022-09-17T22:37:22.223Z,1.92
2022-09-17T22:41:09.427Z,1.48
2022-09-17T22:48:32.940Z,1.50
2022-09-17T22:52:14.720Z,1.85
2022-09-17T22:55:57.015Z,1.75
2022-09-17T22:59:38.804Z,1.48
2022-09-17T23:03:22.077Z,1.48
2022-09-17T23:07:04.346Z,1.85
2022-09-17T23:10:46.136Z,1.60
2022-09-17T23:14:27.908Z,1.60
2022-09-17T23:18:09.714Z,1.25
2022-09-17T23:21:51.483Z,1.35
2022-09-17T23:25:33.326Z,1.48
2022-09-17T23:29:15.561Z,1.60
2022-09-17T23:32:58.777Z,1.08
2022-09-17T23:36:40.671Z,1.55
2022-09-17T23:40:23.459Z,1.50
2022-09-17T23:44:13.705Z,1.50
2022-09-17T23:47:56.606Z,1.75
2022-09-17T23:51:38.691Z,1.42
2022-09-17T23:55:20.547Z,1.27
2022-09-17T23:59:02.918Z,1.23
